sensor_id;sensor_type;location;lat;lon;timestamp;pressure;altitude;pressure_sealevel;temperature;humidity
61676;BME280;47574;52.090;5.244;2023-09-18T00:00:09;100623.0;;;24.41;63.27
61676;BME280;47574;52.090;5.244;2023-09-18T00:03:22;100619.0;;;24.49;63.18
61676;BME280;47574;52.090;5.244;2023-09-18T00:04:58;100612.0;;;24.48;63.07
61676;BME280;47574;52.090;5.244;2023-09-18T00:06:34;100605.0;;;24.49;63.09
61676;BME280;47574;52.090;5.244;2023-09-18T00:09:46;100597.0;;;24.52;62.97
61676;BME280;47574;52.090;5.244;2023-09-18T00:11:22;100590.0;;;24.49;63.06
61676;BME280;47574;52.090;5.244;2023-09-18T00:13:00;100581.0;;;24.44;63.2
61676;BME280;47574;52.090;5.244;2023-09-18T00:16:13;100576.0;;;24.26;63.75
61676;BME280;47574;52.090;5.244;2023-09-18T00:17:49;100569.0;;;24.44;63.11
61676;BME280;47574;52.090;5.244;2023-09-18T00:19:25;100564.0;;;24.48;63.06
61676;BME280;47574;52.090;5.244;2023-09-18T00:21:01;100562.0;;;24.53;62.77
61676;BME280;47574;52.090;5.244;2023-09-18T00:24:14;100567.0;;;24.5;62.87
61676;BME280;47574;52.090;5.244;2023-09-18T00:25:51;100559.0;;;24.5;62.95
61676;BME280;47574;52.090;5.244;2023-09-18T00:27:27;100556.0;;;24.49;62.83
61676;BME280;47574;52.090;5.244;2023-09-18T00:30:44;100551.0;;;24.35;63.28
61676;BME280;47574;52.090;5.244;2023-09-18T00:32:23;100543.0;;;24.42;63.04
61676;BME280;47574;52.090;5.244;2023-09-18T00:33:59;100535.0;;;24.38;63.12
61676;BME280;47574;52.090;5.244;2023-09-18T00:37:11;100532.0;;;24.28;63.38
61676;BME280;47574;52.090;5.244;2023-09-18T00:38:47;100532.0;;;24.36;63.1
61676;BME280;47574;52.090;5.244;2023-09-18T00:40:24;100535.0;;;24.33;63.21
61676;BME280;47574;52.090;5.244;2023-09-18T00:42:00;100539.0;;;24.31;63.13
61676;BME280;47574;52.090;5.244;2023-09-18T00:45:12;100538.0;;;24.29;63.17
61676;BME280;47574;52.090;5.244;2023-09-18T00:46:48;100530.0;;;24.37;62.95
61676;BME280;47574;52.090;5.244;2023-09-18T00:48:25;100519.0;;;24.35;62.93
61676;BME280;47574;52.090;5.244;2023-09-18T00:51:38;100513.0;;;24.38;62.76
61676;BME280;47574;52.090;5.244;2023-09-18T00:53:17;100502.0;;;24.34;62.81
61676;BME280;47574;52.090;5.244;2023-09-18T00:54:58;100495.0;;;24.31;62.98
61676;BME280;47574;52.090;5.244;2023-09-18T00:56:35;100492.0;;;24.35;63.01
61676;BME280;47574;52.090;5.244;2023-09-18T00:59:50;100490.0;;;24.34;62.85
61676;BME280;47574;52.090;5.244;2023-09-18T01:01:26;100492.0;;;24.31;62.98
61676;BME280;47574;52.090;5.244;2023-09-18T01:03:03;100481.0;;;24.32;62.99
61676;BME280;47574;52.090;5.244;2023-09-18T01:06:17;100474.0;;;24.37;62.86
61676;BME280;47574;52.090;5.244;2023-09-18T01:07:53;100466.0;;;24.25;63.24
61676;BME280;47574;52.090;5.244;2023-09-18T01:09:31;100455.0;;;24.23;63.14
61676;BME280;47574;52.090;5.244;2023-09-18T01:12:59;100449.0;;;24.3;62.9
61676;BME280;47574;52.090;5.244;2023-09-18T01:14:49;100450.0;;;24.35;62.88
61676;BME280;47574;52.090;5.244;2023-09-18T01:16:35;100443.0;;;24.37;62.74
61676;BME280;47574;52.090;5.244;2023-09-18T01:18:13;100436.0;;;24.33;62.9
61676;BME280;47574;52.090;5.244;2023-09-18T01:19:50;100426.0;;;24.24;63.07
61676;BME280;47574;52.090;5.244;2023-09-18T01:23:03;100426.0;;;24.28;63.06
61676;BME280;47574;52.090;5.244;2023-09-18T01:24:39;100424.0;;;24.36;62.72
61676;BME280;47574;52.090;5.244;2023-09-18T01:26:16;100419.0;;;24.31;62.93
61676;BME280;47574;52.090;5.244;2023-09-18T01:29:28;100411.0;;;24.37;62.78
61676;BME280;47574;52.090;5.244;2023-09-18T01:31:04;100405.0;;;24.42;62.64
61676;BME280;47574;52.090;5.244;2023-09-18T01:32:43;100400.0;;;24.34;62.82
61676;BME280;47574;52.090;5.244;2023-09-18T01:34:21;100399.0;;;24.32;62.81
61676;BME280;47574;52.090;5.244;2023-09-18T01:37:41;100396.0;;;24.28;63.16
61676;BME280;47574;52.090;5.244;2023-09-18T01:39:20;100407.0;;;24.29;63.07
61676;BME280;47574;52.090;5.244;2023-09-18T01:40:57;100413.0;;;24.32;62.99
61676;BME280;47574;52.090;5.244;2023-09-18T01:44:11;100420.0;;;24.33;62.93
61676;BME280;47574;52.090;5.244;2023-09-18T01:45:47;100421.0;;;24.45;62.46
61676;BME280;47574;52.090;5.244;2023-09-18T01:47:23;100415.0;;;24.36;62.66
61676;BME280;47574;52.090;5.244;2023-09-18T01:48:59;100414.0;;;24.43;62.51
61676;BME280;47574;52.090;5.244;2023-09-18T01:52:13;100408.0;;;24.35;62.61
61676;BME280;47574;52.090;5.244;2023-09-18T01:53:50;100406.0;;;24.4;62.47
61676;BME280;47574;52.090;5.244;2023-09-18T01:55:29;100408.0;;;24.45;62.21
61676;BME280;47574;52.090;5.244;2023-09-18T01:58:42;100405.0;;;24.32;62.54
61676;BME280;47574;52.090;5.244;2023-09-18T02:01:55;100394.0;;;24.19;63.09
61676;BME280;47574;52.090;5.244;2023-09-18T02:05:07;100398.0;;;24.3;62.78
61676;BME280;47574;52.090;5.244;2023-09-18T02:06:43;100405.0;;;24.29;62.87
61676;BME280;47574;52.090;5.244;2023-09-18T02:08:20;100407.0;;;24.32;62.65
61676;BME280;47574;52.090;5.244;2023-09-18T02:09:56;100406.0;;;24.35;62.45
61676;BME280;47574;52.090;5.244;2023-09-18T02:13:08;100412.0;;;24.31;62.68
61676;BME280;47574;52.090;5.244;2023-09-18T02:14:45;100413.0;;;24.18;63.22
61676;BME280;47574;52.090;5.244;2023-09-18T02:16:21;100413.0;;;24.37;62.68
61676;BME280;47574;52.090;5.244;2023-09-18T02:19:33;100419.0;;;24.32;62.98
61676;BME280;47574;52.090;5.244;2023-09-18T02:21:09;100419.0;;;24.28;63.13
61676;BME280;47574;52.090;5.244;2023-09-18T02:22:46;100412.0;;;24.34;63.07
61676;BME280;47574;52.090;5.244;2023-09-18T02:25:58;100405.0;;;24.34;63.29
61676;BME280;47574;52.090;5.244;2023-09-18T02:27:34;100406.0;;;24.34;63.35
61676;BME280;47574;52.090;5.244;2023-09-18T02:29:11;100397.0;;;24.4;63.13
61676;BME280;47574;52.090;5.244;2023-09-18T02:30:47;100392.0;;;24.51;62.83
61676;BME280;47574;52.090;5.244;2023-09-18T02:33:59;100384.0;;;24.52;62.91
61676;BME280;47574;52.090;5.244;2023-09-18T02:35:35;100380.0;;;24.61;62.67
61676;BME280;47574;52.090;5.244;2023-09-18T02:37:11;100374.0;;;24.68;62.34
61676;BME280;47574;52.090;5.244;2023-09-18T02:40:23;100371.0;;;24.68;62.53
61676;BME280;47574;52.090;5.244;2023-09-18T02:41:59;100372.0;;;24.6;62.8
61676;BME280;47574;52.090;5.244;2023-09-18T02:43:35;100376.0;;;24.67;62.63
61676;BME280;47574;52.090;5.244;2023-09-18T02:46:48;100374.0;;;24.74;62.36
61676;BME280;47574;52.090;5.244;2023-09-18T02:48:24;100380.0;;;24.6;62.9
61676;BME280;47574;52.090;5.244;2023-09-18T02:49:59;100374.0;;;24.72;62.61
61676;BME280;47574;52.090;5.244;2023-09-18T02:53:17;100364.0;;;24.68;62.72
61676;BME280;47574;52.090;5.244;2023-09-18T02:54:53;100358.0;;;24.51;63.21
61676;BME280;47574;52.090;5.244;2023-09-18T02:56:29;100348.0;;;24.59;63.13
61676;BME280;47574;52.090;5.244;2023-09-18T02:58:06;100331.0;;;24.6;62.95
61676;BME280;47574;52.090;5.244;2023-09-18T03:01:18;100316.0;;;24.62;62.96
61676;BME280;47574;52.090;5.244;2023-09-18T03:02:54;100310.0;;;24.66;62.7
61676;BME280;47574;52.090;5.244;2023-09-18T03:04:31;100299.0;;;24.65;62.72
61676;BME280;47574;52.090;5.244;2023-09-18T03:07:43;100290.0;;;24.7;62.54
61676;BME280;47574;52.090;5.244;2023-09-18T03:09:19;100285.0;;;24.66;62.66
61676;BME280;47574;52.090;5.244;2023-09-18T03:10:55;100285.0;;;24.66;62.77
61676;BME280;47574;52.090;5.244;2023-09-18T03:14:08;100287.0;;;24.75;62.4
61676;BME280;47574;52.090;5.244;2023-09-18T03:15:45;100290.0;;;24.61;62.87
61676;BME280;47574;52.090;5.244;2023-09-18T03:17:21;100290.0;;;24.57;62.93
61676;BME280;47574;52.090;5.244;2023-09-18T03:18:57;100293.0;;;24.54;63.22
61676;BME280;47574;52.090;5.244;2023-09-18T03:22:09;100286.0;;;24.57;63.03
61676;BME280;47574;52.090;5.244;2023-09-18T03:23:45;100291.0;;;24.63;62.83
61676;BME280;47574;52.090;5.244;2023-09-18T03:25:22;100284.0;;;24.5;63.34
61676;BME280;47574;52.090;5.244;2023-09-18T03:28:34;100281.0;;;24.53;63.24
61676;BME280;47574;52.090;5.244;2023-09-18T03:30:10;100275.0;;;24.37;63.79
61676;BME280;47574;52.090;5.244;2023-09-18T03:31:47;100280.0;;;24.41;63.76
61676;BME280;47574;52.090;5.244;2023-09-18T03:34:59;100286.0;;;24.45;63.61
61676;BME280;47574;52.090;5.244;2023-09-18T03:36:35;100281.0;;;24.47;63.5
61676;BME280;47574;52.090;5.244;2023-09-18T03:38:11;100289.0;;;24.53;63.28
61676;BME280;47574;52.090;5.244;2023-09-18T03:39:47;100297.0;;;24.53;63.3
61676;BME280;47574;52.090;5.244;2023-09-18T03:43:00;100302.0;;;24.54;63.26
61676;BME280;47574;52.090;5.244;2023-09-18T03:44:36;100303.0;;;24.56;63.18
61676;BME280;47574;52.090;5.244;2023-09-18T03:46:13;100302.0;;;24.59;63.16
61676;BME280;47574;52.090;5.244;2023-09-18T03:49:27;100307.0;;;24.55;63.31
61676;BME280;47574;52.090;5.244;2023-09-18T03:51:04;100313.0;;;24.6;63.18
61676;BME280;47574;52.090;5.244;2023-09-18T03:52:40;100314.0;;;24.64;63.04
61676;BME280;47574;52.090;5.244;2023-09-18T03:55:52;100308.0;;;24.67;62.92
61676;BME280;47574;52.090;5.244;2023-09-18T03:57:29;100294.0;;;24.65;62.98
61676;BME280;47574;52.090;5.244;2023-09-18T03:59:05;100286.0;;;24.61;63.03
61676;BME280;47574;52.090;5.244;2023-09-18T04:00:41;100286.0;;;24.71;62.8
61676;BME280;47574;52.090;5.244;2023-09-18T04:03:53;100293.0;;;24.61;63.11
61676;BME280;47574;52.090;5.244;2023-09-18T04:05:29;100286.0;;;24.49;63.5
61676;BME280;47574;52.090;5.244;2023-09-18T04:07:06;100280.0;;;24.52;63.39
61676;BME280;47574;52.090;5.244;2023-09-18T04:10:18;100272.0;;;24.49;63.48
61676;BME280;47574;52.090;5.244;2023-09-18T04:11:54;100264.0;;;24.38;64.02
61676;BME280;47574;52.090;5.244;2023-09-18T04:13:30;100264.0;;;24.49;63.74
61676;BME280;47574;52.090;5.244;2023-09-18T04:16:42;100263.0;;;24.62;63.28
61676;BME280;47574;52.090;5.244;2023-09-18T04:18:18;100258.0;;;24.6;63.35
61676;BME280;47574;52.090;5.244;2023-09-18T04:19:54;100253.0;;;24.46;63.79
61676;BME280;47574;52.090;5.244;2023-09-18T04:23:23;100239.0;;;24.66;63.25
61676;BME280;47574;52.090;5.244;2023-09-18T04:25:01;100233.0;;;24.7;63.13
61676;BME280;47574;52.090;5.244;2023-09-18T04:26:37;100230.0;;;24.72;63.04
61676;BME280;47574;52.090;5.244;2023-09-18T04:28:13;100224.0;;;24.77;62.92
61676;BME280;47574;52.090;5.244;2023-09-18T04:31:25;100223.0;;;24.64;63.42
61676;BME280;47574;52.090;5.244;2023-09-18T04:33:01;100227.0;;;24.8;63.05
61676;BME280;47574;52.090;5.244;2023-09-18T04:34:37;100230.0;;;24.56;63.82
61676;BME280;47574;52.090;5.244;2023-09-18T04:37:50;100221.0;;;24.55;63.63
61676;BME280;47574;52.090;5.244;2023-09-18T04:39:26;100214.0;;;24.68;63.16
61676;BME280;47574;52.090;5.244;2023-09-18T04:41:02;100207.0;;;24.6;62.96
61676;BME280;47574;52.090;5.244;2023-09-18T04:42:38;100202.0;;;24.88;62.09
61676;BME280;47574;52.090;5.244;2023-09-18T04:45:51;100201.0;;;24.82;62.13
61676;BME280;47574;52.090;5.244;2023-09-18T04:47:27;100199.0;;;24.9;62.35
61676;BME280;47574;52.090;5.244;2023-09-18T04:49:03;100190.0;;;24.94;62.4
61676;BME280;47574;52.090;5.244;2023-09-18T04:52:15;100193.0;;;25.03;62.15
61676;BME280;47574;52.090;5.244;2023-09-18T04:53:52;100205.0;;;24.91;62.51
61676;BME280;47574;52.090;5.244;2023-09-18T04:55:28;100203.0;;;25.06;62.18
61676;BME280;47574;52.090;5.244;2023-09-18T04:58:40;100207.0;;;24.91;62.88
61676;BME280;47574;52.090;5.244;2023-09-18T05:00:16;100203.0;;;24.85;62.96
61676;BME280;47574;52.090;5.244;2023-09-18T05:01:52;100202.0;;;24.76;63.08
61676;BME280;47574;52.090;5.244;2023-09-18T05:03:28;100200.0;;;24.71;63.45
61676;BME280;47574;52.090;5.244;2023-09-18T05:06:41;100200.0;;;24.8;63.12
61676;BME280;47574;52.090;5.244;2023-09-18T05:08:18;100202.0;;;24.74;63.42
61676;BME280;47574;52.090;5.244;2023-09-18T05:09:54;100211.0;;;24.61;63.86
61676;BME280;47574;52.090;5.244;2023-09-18T05:13:06;100220.0;;;24.64;63.87
61676;BME280;47574;52.090;5.244;2023-09-18T05:14:43;100228.0;;;24.41;64.72
61676;BME280;47574;52.090;5.244;2023-09-18T05:16:19;100221.0;;;24.66;63.99
61676;BME280;47574;52.090;5.244;2023-09-18T05:19:32;100217.0;;;24.65;63.93
61676;BME280;47574;52.090;5.244;2023-09-18T05:21:09;100218.0;;;24.57;64.19
61676;BME280;47574;52.090;5.244;2023-09-18T05:22:46;100219.0;;;24.52;64.44
61676;BME280;47574;52.090;5.244;2023-09-18T05:24:22;100224.0;;;24.73;63.67
61676;BME280;47574;52.090;5.244;2023-09-18T05:27:33;100230.0;;;24.69;63.89
61676;BME280;47574;52.090;5.244;2023-09-18T05:29:09;100227.0;;;24.69;63.75
61676;BME280;47574;52.090;5.244;2023-09-18T05:30:45;100221.0;;;24.63;63.86
61676;BME280;47574;52.090;5.244;2023-09-18T05:33:58;100230.0;;;24.7;63.85
61676;BME280;47574;52.090;5.244;2023-09-18T05:35:36;100227.0;;;24.66;63.87
61676;BME280;47574;52.090;5.244;2023-09-18T05:37:13;100228.0;;;24.64;63.96
61676;BME280;47574;52.090;5.244;2023-09-18T05:40:25;100234.0;;;24.63;63.96
61676;BME280;47574;52.090;5.244;2023-09-18T05:42:02;100244.0;;;24.61;64.06
61676;BME280;47574;52.090;5.244;2023-09-18T05:43:39;100247.0;;;24.61;64.05
61676;BME280;47574;52.090;5.244;2023-09-18T05:46:51;100256.0;;;24.66;63.86
61676;BME280;47574;52.090;5.244;2023-09-18T05:48:27;100259.0;;;24.59;64.11
61676;BME280;47574;52.090;5.244;2023-09-18T05:50:04;100256.0;;;24.45;64.55
61676;BME280;47574;52.090;5.244;2023-09-18T05:51:40;100246.0;;;24.54;64.24
61676;BME280;47574;52.090;5.244;2023-09-18T05:54:52;100242.0;;;24.58;64.13
61676;BME280;47574;52.090;5.244;2023-09-18T05:56:28;100232.0;;;24.42;64.44
61676;BME280;47574;52.090;5.244;2023-09-18T05:58:04;100230.0;;;24.53;64.24
61676;BME280;47574;52.090;5.244;2023-09-18T06:01:16;100227.0;;;24.58;63.92
61676;BME280;47574;52.090;5.244;2023-09-18T06:02:52;100230.0;;;24.58;64.0
61676;BME280;47574;52.090;5.244;2023-09-18T06:04:28;100232.0;;;24.56;64.05
61676;BME280;47574;52.090;5.244;2023-09-18T06:07:41;100236.0;;;24.49;64.2
61676;BME280;47574;52.090;5.244;2023-09-18T06:09:17;100230.0;;;24.38;64.59
61676;BME280;47574;52.090;5.244;2023-09-18T06:10:54;100230.0;;;24.32;64.77
61676;BME280;47574;52.090;5.244;2023-09-18T06:12:30;100240.0;;;24.44;64.5
61676;BME280;47574;52.090;5.244;2023-09-18T06:15:42;100248.0;;;24.49;64.39
61676;BME280;47574;52.090;5.244;2023-09-18T06:17:18;100242.0;;;24.51;64.36
61676;BME280;47574;52.090;5.244;2023-09-18T06:18:54;100252.0;;;24.49;64.55
61676;BME280;47574;52.090;5.244;2023-09-18T06:22:06;100253.0;;;24.59;64.11
61676;BME280;47574;52.090;5.244;2023-09-18T06:23:42;100255.0;;;24.54;64.44
61676;BME280;47574;52.090;5.244;2023-09-18T06:25:19;100252.0;;;24.52;64.48
61676;BME280;47574;52.090;5.244;2023-09-18T06:28:31;100246.0;;;24.53;64.52
61676;BME280;47574;52.090;5.244;2023-09-18T06:30:07;100243.0;;;24.52;64.55
61676;BME280;47574;52.090;5.244;2023-09-18T06:31:45;100244.0;;;24.65;64.09
61676;BME280;47574;52.090;5.244;2023-09-18T06:34:57;100239.0;;;24.68;64.02
61676;BME280;47574;52.090;5.244;2023-09-18T06:36:33;100251.0;;;24.65;64.1
61676;BME280;47574;52.090;5.244;2023-09-18T06:38:09;100247.0;;;24.64;64.16
61676;BME280;47574;52.090;5.244;2023-09-18T06:39:45;100241.0;;;24.7;63.9
61676;BME280;47574;52.090;5.244;2023-09-18T06:42:58;100234.0;;;24.6;64.11
61676;BME280;47574;52.090;5.244;2023-09-18T06:44:35;100232.0;;;24.65;64.11
61676;BME280;47574;52.090;5.244;2023-09-18T06:46:11;100236.0;;;24.65;64.0
61676;BME280;47574;52.090;5.244;2023-09-18T06:49:23;100233.0;;;24.66;64.0
61676;BME280;47574;52.090;5.244;2023-09-18T06:50:59;100232.0;;;24.66;63.87
61676;BME280;47574;52.090;5.244;2023-09-18T06:52:35;100244.0;;;24.63;64.02
61676;BME280;47574;52.090;5.244;2023-09-18T06:55:47;100245.0;;;24.69;63.9
61676;BME280;47574;52.090;5.244;2023-09-18T06:57:24;100250.0;;;24.59;64.11
61676;BME280;47574;52.090;5.244;2023-09-18T06:58:59;100256.0;;;24.61;64.16
61676;BME280;47574;52.090;5.244;2023-09-18T07:00:36;100255.0;;;24.66;63.98
61676;BME280;47574;52.090;5.244;2023-09-18T07:03:48;100257.0;;;24.56;64.38
61676;BME280;47574;52.090;5.244;2023-09-18T07:05:24;100256.0;;;24.55;64.3
61676;BME280;47574;52.090;5.244;2023-09-18T07:07:00;100250.0;;;24.67;64.19
61676;BME280;47574;52.090;5.244;2023-09-18T07:10:12;100245.0;;;24.75;63.8
61676;BME280;47574;52.090;5.244;2023-09-18T07:11:48;100250.0;;;24.78;63.65
61676;BME280;47574;52.090;5.244;2023-09-18T07:13:24;100252.0;;;24.77;63.68
61676;BME280;47574;52.090;5.244;2023-09-18T07:16:38;100249.0;;;24.81;63.37
61676;BME280;47574;52.090;5.244;2023-09-18T07:18:14;100253.0;;;24.74;63.5
61676;BME280;47574;52.090;5.244;2023-09-18T07:19:50;100266.0;;;24.69;63.85
61676;BME280;47574;52.090;5.244;2023-09-18T07:23:02;100259.0;;;24.86;63.45
61676;BME280;47574;52.090;5.244;2023-09-18T07:24:38;100257.0;;;24.86;63.21
61676;BME280;47574;52.090;5.244;2023-09-18T07:26:14;100255.0;;;24.78;63.16
61676;BME280;47574;52.090;5.244;2023-09-18T07:27:50;100249.0;;;24.73;63.36
61676;BME280;47574;52.090;5.244;2023-09-18T07:31:05;100246.0;;;24.64;63.48
61676;BME280;47574;52.090;5.244;2023-09-18T07:32:41;100245.0;;;24.84;62.96
61676;BME280;47574;52.090;5.244;2023-09-18T07:34:17;100236.0;;;24.67;63.2
61676;BME280;47574;52.090;5.244;2023-09-18T07:37:29;100234.0;;;24.59;63.0
61676;BME280;47574;52.090;5.244;2023-09-18T07:39:05;100230.0;;;24.68;63.03
61676;BME280;47574;52.090;5.244;2023-09-18T07:40:41;100235.0;;;24.66;63.01
61676;BME280;47574;52.090;5.244;2023-09-18T07:43:53;100240.0;;;24.98;62.03
61676;BME280;47574;52.090;5.244;2023-09-18T07:45:29;100242.0;;;24.71;62.5
61676;BME280;47574;52.090;5.244;2023-09-18T07:47:05;100241.0;;;24.74;62.4
61676;BME280;47574;52.090;5.244;2023-09-18T07:50:18;100239.0;;;24.7;62.6
61676;BME280;47574;52.090;5.244;2023-09-18T07:51:54;100244.0;;;24.67;62.42
61676;BME280;47574;52.090;5.244;2023-09-18T07:53:30;100253.0;;;24.49;62.92
61676;BME280;47574;52.090;5.244;2023-09-18T07:55:07;100255.0;;;24.55;62.61
61676;BME280;47574;52.090;5.244;2023-09-18T07:58:19;100261.0;;;24.45;62.67
61676;BME280;47574;52.090;5.244;2023-09-18T07:59:55;100261.0;;;24.57;62.64
61676;BME280;47574;52.090;5.244;2023-09-18T08:01:31;100264.0;;;24.65;62.22
61676;BME280;47574;52.090;5.244;2023-09-18T08:04:44;100265.0;;;24.61;62.16
61676;BME280;47574;52.090;5.244;2023-09-18T08:06:20;100272.0;;;24.48;62.24
61676;BME280;47574;52.090;5.244;2023-09-18T08:07:56;100273.0;;;24.7;61.95
61676;BME280;47574;52.090;5.244;2023-09-18T08:11:08;100274.0;;;24.55;62.06
61676;BME280;47574;52.090;5.244;2023-09-18T08:12:44;100274.0;;;24.51;62.1
61676;BME280;47574;52.090;5.244;2023-09-18T08:14:20;100274.0;;;24.79;61.67
61676;BME280;47574;52.090;5.244;2023-09-18T08:15:56;100271.0;;;24.5;62.18
61676;BME280;47574;52.090;5.244;2023-09-18T08:19:09;100271.0;;;24.58;61.74
61676;BME280;47574;52.090;5.244;2023-09-18T08:20:45;100272.0;;;24.51;61.98
61676;BME280;47574;52.090;5.244;2023-09-18T08:22:21;100268.0;;;24.75;61.43
61676;BME280;47574;52.090;5.244;2023-09-18T08:25:33;100269.0;;;24.64;61.72
61676;BME280;47574;52.090;5.244;2023-09-18T08:27:09;100276.0;;;24.65;61.43
61676;BME280;47574;52.090;5.244;2023-09-18T08:28:45;100280.0;;;24.75;61.11
61676;BME280;47574;52.090;5.244;2023-09-18T08:31:57;100280.0;;;24.91;60.99
61676;BME280;47574;52.090;5.244;2023-09-18T08:33:34;100287.0;;;24.62;61.5
61676;BME280;47574;52.090;5.244;2023-09-18T08:35:10;100289.0;;;24.73;61.48
61676;BME280;47574;52.090;5.244;2023-09-18T08:38:22;100288.0;;;24.63;61.82
61676;BME280;47574;52.090;5.244;2023-09-18T08:39:58;100291.0;;;24.57;61.86
61676;BME280;47574;52.090;5.244;2023-09-18T08:41:38;100292.0;;;24.69;61.87
61676;BME280;47574;52.090;5.244;2023-09-18T08:43:18;100291.0;;;24.73;61.48
61676;BME280;47574;52.090;5.244;2023-09-18T08:46:35;100290.0;;;24.67;61.49
61676;BME280;47574;52.090;5.244;2023-09-18T08:48:12;100290.0;;;24.4;62.2
61676;BME280;47574;52.090;5.244;2023-09-18T08:49:50;100297.0;;;24.57;61.53
61676;BME280;47574;52.090;5.244;2023-09-18T08:53:03;100297.0;;;24.82;61.48
61676;BME280;47574;52.090;5.244;2023-09-18T08:54:39;100300.0;;;24.93;61.11
61676;BME280;47574;52.090;5.244;2023-09-18T08:56:17;100308.0;;;24.97;60.78
61676;BME280;47574;52.090;5.244;2023-09-18T08:57:54;100305.0;;;24.77;60.95
61676;BME280;47574;52.090;5.244;2023-09-18T09:01:11;100311.0;;;24.83;60.74
61676;BME280;47574;52.090;5.244;2023-09-18T09:02:47;100311.0;;;24.86;60.7
61676;BME280;47574;52.090;5.244;2023-09-18T09:04:24;100316.0;;;24.93;60.33
61676;BME280;47574;52.090;5.244;2023-09-18T09:07:37;100327.0;;;25.14;59.63
61676;BME280;47574;52.090;5.244;2023-09-18T09:09:13;100326.0;;;24.91;59.86
61676;BME280;47574;52.090;5.244;2023-09-18T09:10:49;100327.0;;;24.79;60.4
61676;BME280;47574;52.090;5.244;2023-09-18T09:12:58;100324.0;;;25.0;59.89
61676;BME280;47574;52.090;5.244;2023-09-18T09:14:34;100328.0;;;24.84;60.12
61676;BME280;47574;52.090;5.244;2023-09-18T09:17:47;100328.0;;;24.96;59.81
61676;BME280;47574;52.090;5.244;2023-09-18T09:19:29;100333.0;;;25.31;59.22
61676;BME280;47574;52.090;5.244;2023-09-18T09:21:06;100334.0;;;25.4;58.98
61676;BME280;47574;52.090;5.244;2023-09-18T09:24:35;100331.0;;;25.55;58.13
61676;BME280;47574;52.090;5.244;2023-09-18T09:26:13;100330.0;;;25.35;58.44
61676;BME280;47574;52.090;5.244;2023-09-18T09:27:50;100334.0;;;24.93;58.95
61676;BME280;47574;52.090;5.244;2023-09-18T09:29:26;100330.0;;;25.44;57.82
61676;BME280;47574;52.090;5.244;2023-09-18T09:32:39;100330.0;;;25.37;57.84
61676;BME280;47574;52.090;5.244;2023-09-18T09:34:24;100334.0;;;25.18;58.08
61676;BME280;47574;52.090;5.244;2023-09-18T09:36:04;100339.0;;;25.03;58.32
61676;BME280;47574;52.090;5.244;2023-09-18T09:37:41;100343.0;;;24.66;58.81
61676;BME280;47574;52.090;5.244;2023-09-18T09:40:53;100344.0;;;24.8;58.29
61676;BME280;47574;52.090;5.244;2023-09-18T09:42:38;100351.0;;;24.93;57.71
61676;BME280;47574;52.090;5.244;2023-09-18T09:44:14;100351.0;;;24.67;58.65
61676;BME280;47574;52.090;5.244;2023-09-18T09:47:34;100355.0;;;25.04;58.0
61676;BME280;47574;52.090;5.244;2023-09-18T09:49:10;100353.0;;;25.1;57.15
61676;BME280;47574;52.090;5.244;2023-09-18T09:50:48;100353.0;;;25.11;57.38
61676;BME280;47574;52.090;5.244;2023-09-18T09:52:24;100357.0;;;24.86;57.64
61676;BME280;47574;52.090;5.244;2023-09-18T09:55:36;100366.0;;;24.97;57.94
61676;BME280;47574;52.090;5.244;2023-09-18T09:57:12;100366.0;;;24.63;58.21
61676;BME280;47574;52.090;5.244;2023-09-18T09:59:05;100367.0;;;25.03;57.5
61676;BME280;47574;52.090;5.244;2023-09-18T10:00:44;100371.0;;;25.07;57.5
61676;BME280;47574;52.090;5.244;2023-09-18T10:03:58;100370.0;;;24.86;57.83
61676;BME280;47574;52.090;5.244;2023-09-18T10:05:35;100374.0;;;25.0;57.54
61676;BME280;47574;52.090;5.244;2023-09-18T10:07:13;100366.0;;;24.86;57.89
61676;BME280;47574;52.090;5.244;2023-09-18T10:10:29;100365.0;;;25.11;57.56
61676;BME280;47574;52.090;5.244;2023-09-18T10:12:10;100371.0;;;25.07;57.46
61676;BME280;47574;52.090;5.244;2023-09-18T10:13:51;100363.0;;;25.23;57.24
61676;BME280;47574;52.090;5.244;2023-09-18T10:15:33;100362.0;;;25.07;57.19
61676;BME280;47574;52.090;5.244;2023-09-18T10:18:56;100358.0;;;25.04;57.4
61676;BME280;47574;52.090;5.244;2023-09-18T10:20:41;100359.0;;;24.88;57.96
61676;BME280;47574;52.090;5.244;2023-09-18T10:22:22;100356.0;;;25.41;56.74
61676;BME280;47574;52.090;5.244;2023-09-18T10:24:07;100367.0;;;25.24;56.95
61676;BME280;47574;52.090;5.244;2023-09-18T10:25:53;100369.0;;;25.57;56.54
61676;BME280;47574;52.090;5.244;2023-09-18T10:29:09;100372.0;;;25.14;57.24
61676;BME280;47574;52.090;5.244;2023-09-18T10:30:46;100374.0;;;24.83;58.06
61676;BME280;47574;52.090;5.244;2023-09-18T10:32:25;100370.0;;;25.28;57.06
61676;BME280;47574;52.090;5.244;2023-09-18T10:34:02;100371.0;;;25.68;56.56
61676;BME280;47574;52.090;5.244;2023-09-18T10:37:18;100376.0;;;25.18;57.04
61676;BME280;47574;52.090;5.244;2023-09-18T10:38:55;100371.0;;;25.44;56.2
61676;BME280;47574;52.090;5.244;2023-09-18T10:40:32;100373.0;;;25.37;56.05
61676;BME280;47574;52.090;5.244;2023-09-18T10:43:53;100369.0;;;25.43;56.2
61676;BME280;47574;52.090;5.244;2023-09-18T10:45:30;100377.0;;;25.54;55.81
61676;BME280;47574;52.090;5.244;2023-09-18T10:47:09;100373.0;;;25.41;55.8
61676;BME280;47574;52.090;5.244;2023-09-18T10:48:47;100378.0;;;25.29;55.24
61676;BME280;47574;52.090;5.244;2023-09-18T10:52:03;100382.0;;;25.16;55.78
61676;BME280;47574;52.090;5.244;2023-09-18T10:53:39;100376.0;;;25.39;55.23
61676;BME280;47574;52.090;5.244;2023-09-18T10:55:15;100376.0;;;25.07;56.12
61676;BME280;47574;52.090;5.244;2023-09-18T10:58:29;100371.0;;;25.14;55.54
61676;BME280;47574;52.090;5.244;2023-09-18T11:00:07;100371.0;;;24.94;55.93
61676;BME280;47574;52.090;5.244;2023-09-18T11:01:46;100370.0;;;25.11;56.11
61676;BME280;47574;52.090;5.244;2023-09-18T11:03:23;100369.0;;;25.37;55.88
61676;BME280;47574;52.090;5.244;2023-09-18T11:07:07;100363.0;;;25.24;55.0
61676;BME280;47574;52.090;5.244;2023-09-18T11:08:45;100358.0;;;25.73;54.3